Time;durP1;ratioP1;P1;durP2;ratioP2;P2;SDS_P1;SDS_P2;PMS_P1;PMS_P2;Temp;Humidity;BMP_temperature;BMP_pressure;BME280_temperature;BME280_humidity;BME280_pressure;Samples;Min_cycle;Max_cycle;Signal;HPM_P1;HPM_P2
2022/12/08 00:01:43;;;;;;;14.00;9.43;;;6.00;99.90;;;;;;5088075;28;20188;-64
2022/12/08 00:04:10;;;;;;;16.17;10.17;;;6.00;99.90;;;;;;5082862;28;20587;-63
2022/12/08 00:09:25;;;;;;;20.70;10.77;;;5.90;99.90;;;;;;5089185;28;20256;-63
2022/12/08 00:11:53;;;;;;;20.40;12.13;;;6.00;99.90;;;;;;5090875;28;20189;-63
2022/12/08 00:14:22;;;;;;;24.63;11.07;;;6.00;99.90;;;;;;5091215;28;20200;-63
2022/12/08 00:16:47;;;;;;;21.77;11.63;;;5.80;99.90;;;;;;5076106;28;20615;-64
2022/12/08 00:19:13;;;;;;;23.40;11.70;;;5.70;99.90;;;;;;5085910;28;20326;-64
2022/12/08 00:21:39;;;;;;;18.40;11.33;;;5.70;99.90;;;;;;5090023;28;20200;-64
2022/12/08 00:24:05;;;;;;;20.13;12.43;;;5.70;99.90;;;;;;5090068;28;20193;-63
2022/12/08 00:26:30;;;;;;;19.90;11.60;;;5.70;99.90;;;;;;5091423;28;20519;-64
2022/12/08 00:28:56;;;;;;;18.03;10.53;;;5.70;99.90;;;;;;5090092;28;20619;-63
2022/12/08 00:31:21;;;;;;;17.27;11.77;;;5.60;99.90;;;;;;5080279;28;20542;-64
2022/12/08 00:33:47;;;;;;;25.63;12.17;;;5.70;99.90;;;;;;5082901;28;20217;-63
2022/12/08 00:36:13;;;;;;;18.47;10.60;;;5.70;99.90;;;;;;5080243;28;20697;-64
2022/12/08 00:38:40;;;;;;;15.40;9.97;;;5.70;99.90;;;;;;5088696;28;20651;-63
2022/12/08 00:41:14;;;;;;;18.30;9.97;;;5.60;99.90;;;;;;5072584;28;20206;-63
2022/12/08 00:43:39;;;;;;;20.70;12.07;;;5.50;99.90;;;;;;5090941;28;20260;-64
2022/12/08 00:46:05;;;;;;;18.77;10.93;;;5.50;99.90;;;;;;5089607;28;20267;-64
2022/12/08 00:48:31;;;;;;;20.47;11.23;;;5.50;99.90;;;;;;5091118;28;20189;-63
2022/12/08 00:50:56;;;;;;;20.77;12.43;;;5.50;99.90;;;;;;5088902;28;20596;-63
2022/12/08 00:53:22;;;;;;;16.50;10.93;;;5.50;99.90;;;;;;5089830;28;20180;-64
2022/12/08 00:55:48;;;;;;;23.70;11.10;;;5.70;99.90;;;;;;5084502;28;20191;-63
2022/12/08 00:58:13;;;;;;;19.17;11.63;;;5.80;99.90;;;;;;5090946;28;20196;-63
2022/12/08 01:00:40;;;;;;;17.43;11.10;;;5.70;99.90;;;;;;5090784;28;20188;-63
2022/12/08 01:03:09;;;;;;;19.60;10.43;;;5.60;99.90;;;;;;5089773;28;20188;-64
2022/12/08 01:05:35;;;;;;;19.13;11.13;;;5.50;99.90;;;;;;5089762;28;20268;-64
2022/12/08 01:08:00;;;;;;;24.07;13.10;;;5.40;99.90;;;;;;5087547;28;20752;-64
2022/12/08 01:10:26;;;;;;;22.80;11.40;;;5.50;99.90;;;;;;5082911;28;20204;-64
2022/12/08 01:12:51;;;;;;;19.20;10.23;;;5.50;99.90;;;;;;5089891;28;20563;-64
2022/12/08 01:15:17;;;;;;;18.27;11.57;;;5.40;99.90;;;;;;5089632;28;20910;-64
2022/12/08 01:17:43;;;;;;;17.23;11.03;;;5.40;99.90;;;;;;5080410;28;20189;-63
2022/12/08 01:20:08;;;;;;;23.77;11.93;;;5.30;99.90;;;;;;5090364;28;20624;-62
2022/12/08 01:22:35;;;;;;;21.20;11.10;;;5.30;99.90;;;;;;5083344;28;20322;-64
2022/12/08 01:25:01;;;;;;;17.10;10.20;;;5.40;99.90;;;;;;5089300;28;20298;-63
2022/12/08 01:27:27;;;;;;;22.53;11.70;;;5.40;99.90;;;;;;5072635;28;20192;-64
2022/12/08 01:29:52;;;;;;;19.53;11.33;;;5.30;99.90;;;;;;5088763;28;20223;-63
2022/12/08 01:32:18;;;;;;;17.97;11.40;;;5.30;99.90;;;;;;5079140;28;20271;-64
2022/12/08 01:34:43;;;;;;;17.90;11.20;;;5.20;99.90;;;;;;5089585;28;20177;-64
2022/12/08 01:37:11;;;;;;;19.03;11.63;;;5.20;99.90;;;;;;5090663;28;20554;-63
2022/12/08 01:39:37;;;;;;;16.57;10.67;;;5.10;99.90;;;;;;5088669;28;20203;-64
2022/12/08 01:42:02;;;;;;;19.73;11.83;;;5.10;99.90;;;;;;5083696;28;20193;-64
2022/12/08 01:44:28;;;;;;;21.57;11.93;;;5.00;99.90;;;;;;5085709;28;20212;-63
2022/12/08 01:46:54;;;;;;;18.73;11.27;;;4.90;99.90;;;;;;5090349;28;20211;-64
2022/12/08 01:49:30;;;;;;;21.97;11.70;;;4.90;99.90;;;;;;5080670;28;20304;-63
2022/12/08 01:52:02;;;;;;;18.60;11.20;;;5.00;99.90;;;;;;5082058;28;20189;-64
2022/12/08 01:54:35;;;;;;;20.60;11.57;;;5.10;99.90;;;;;;5093422;28;20195;-65
2022/12/08 01:57:10;;;;;;;20.70;12.10;;;4.90;99.90;;;;;;5082801;28;20216;-64
2022/12/08 01:59:40;;;;;;;23.63;11.53;;;4.90;99.90;;;;;;5093906;28;20183;-62
2022/12/08 02:02:07;;;;;;;17.63;11.00;;;4.80;99.90;;;;;;5094112;28;20639;-62
2022/12/08 02:04:33;;;;;;;17.50;11.87;;;4.80;99.90;;;;;;5092442;28;20676;-63
2022/12/08 02:06:59;;;;;;;23.07;11.87;;;4.80;99.90;;;;;;5089824;28;20185;-64
2022/12/08 02:09:25;;;;;;;17.97;10.43;;;4.80;99.90;;;;;;5093935;28;20212;-63
2022/12/08 02:11:54;;;;;;;21.53;11.77;;;4.80;99.90;;;;;;5093694;28;20196;-64
2022/12/08 02:14:20;;;;;;;25.20;11.97;;;4.60;99.90;;;;;;5093467;28;20220;-63
2022/12/08 02:16:57;;;;;;;22.50;12.20;;;4.70;99.90;;;;;;5092838;28;20246;-63
2022/12/08 02:19:50;;;;;;;27.93;13.87;;;4.70;99.90;;;;;;5093911;28;20186;-64
2022/12/08 02:22:35;;;;;;;28.87;12.33;;;4.50;99.90;;;;;;5087089;28;20722;-63
2022/12/08 02:25:10;;;;;;;20.43;12.67;;;4.60;99.90;;;;;;5092492;28;20189;-64
2022/12/08 02:27:57;;;;;;;23.83;13.90;;;4.60;99.90;;;;;;5074992;28;20184;-63
2022/12/08 02:30:48;;;;;;;16.00;11.53;;;4.70;99.90;;;;;;5092740;28;20257;-64
2022/12/08 02:33:22;;;;;;;22.03;13.00;;;4.60;99.90;;;;;;5089877;28;20180;-64
2022/12/08 02:36:19;;;;;;;21.97;14.40;;;4.60;99.90;;;;;;5087593;28;20176;-64
2022/12/08 02:39:07;;;;;;;19.87;12.53;;;4.60;99.90;;;;;;5078716;28;20220;-64
2022/12/08 02:41:51;;;;;;;19.13;11.97;;;4.50;99.90;;;;;;5093153;28;20192;-63
2022/12/08 02:44:30;;;;;;;23.47;11.83;;;4.40;99.90;;;;;;5091868;28;20233;-65
2022/12/08 02:47:13;;;;;;;19.50;11.40;;;4.40;99.90;;;;;;5090722;28;20716;-64
2022/12/08 02:49:39;;;;;;;30.43;13.70;;;4.40;99.90;;;;;;5073490;28;20201;-63
2022/12/08 02:52:10;;;;;;;23.47;11.87;;;4.40;99.90;;;;;;5087078;28;20192;-63
2022/12/08 02:54:37;;;;;;;21.93;12.80;;;4.40;99.90;;;;;;5093124;28;20181;-65
2022/12/08 02:57:21;;;;;;;25.47;12.83;;;4.30;99.90;;;;;;5093345;28;20583;-64
2022/12/08 03:00:12;;;;;;;19.43;13.20;;;4.40;99.90;;;;;;5086495;28;20203;-63
2022/12/08 03:02:50;;;;;;;18.23;11.07;;;4.50;99.90;;;;;;5088078;28;20184;-63
2022/12/08 03:05:45;;;;;;;23.97;12.77;;;4.40;99.90;;;;;;5084584;28;20176;-64
2022/12/08 03:08:21;;;;;;;19.63;10.90;;;4.50;99.90;;;;;;5092752;28;20188;-64
2022/12/08 03:10:59;;;;;;;22.73;10.73;;;4.50;99.90;;;;;;5086164;28;20227;-64
2022/12/08 03:13:33;;;;;;;20.70;12.60;;;4.60;99.90;;;;;;5087970;28;20177;-64
2022/12/08 03:16:00;;;;;;;16.60;10.47;;;4.70;99.90;;;;;;5077982;28;20210;-63
2022/12/08 03:18:30;;;;;;;19.30;10.23;;;4.80;99.90;;;;;;5093062;28;20719;-64
2022/12/08 03:20:56;;;;;;;19.87;10.07;;;4.90;99.90;;;;;;5092323;28;20180;-64
2022/12/08 03:23:23;;;;;;;17.97;11.17;;;4.90;99.90;;;;;;5091151;28;20188;-63
2022/12/08 03:26:10;;;;;;;16.60;10.73;;;5.00;99.90;;;;;;5084023;28;20207;-63
2022/12/08 03:28:36;;;;;;;19.90;11.50;;;5.00;99.90;;;;;;5090827;28;20176;-64
2022/12/08 03:31:06;;;;;;;23.70;11.87;;;5.10;99.90;;;;;;5092420;28;20216;-64
2022/12/08 03:33:36;;;;;;;19.20;12.50;;;5.10;99.90;;;;;;5089212;28;20531;-64
2022/12/08 03:36:06;;;;;;;19.77;12.27;;;5.00;99.90;;;;;;5092256;28;20704;-64
2022/12/08 03:38:43;;;;;;;18.57;10.73;;;5.00;99.90;;;;;;5091974;28;20219;-64
2022/12/08 03:41:19;;;;;;;24.77;12.37;;;4.90;99.90;;;;;;5092465;28;20188;-64
2022/12/08 03:43:46;;;;;;;22.23;13.67;;;5.00;99.90;;;;;;5090930;28;20185;-64
2022/12/08 03:46:13;;;;;;;26.23;12.93;;;5.00;99.90;;;;;;5090820;28;20200;-64
2022/12/08 03:48:39;;;;;;;23.73;13.53;;;5.00;99.90;;;;;;5091757;28;20204;-64
2022/12/08 03:51:04;;;;;;;27.07;13.83;;;5.00;99.90;;;;;;5084796;28;20686;-64
2022/12/08 03:53:30;;;;;;;23.33;12.57;;;5.10;99.90;;;;;;5092092;28;20188;-64
2022/12/08 03:55:56;;;;;;;25.27;13.70;;;4.90;99.90;;;;;;5073419;28;20660;-64
2022/12/08 03:58:21;;;;;;;31.57;12.80;;;5.00;99.90;;;;;;5091950;28;20369;-63
2022/12/08 04:00:47;;;;;;;29.27;15.43;;;5.00;99.90;;;;;;5089985;28;20225;-63
2022/12/08 04:03:13;;;;;;;22.80;13.33;;;5.00;99.90;;;;;;5073848;28;20216;-64
2022/12/08 04:05:38;;;;;;;30.50;13.77;;;4.90;99.90;;;;;;5088017;28;20195;-63
2022/12/08 04:08:04;;;;;;;24.97;13.10;;;5.00;99.90;;;;;;5085403;28;20193;-64
2022/12/08 04:10:30;;;;;;;25.87;13.80;;;5.00;99.90;;;;;;5083893;28;20563;-64
2022/12/08 04:12:56;;;;;;;20.80;12.53;;;5.20;99.90;;;;;;5087904;28;20712;-63
2022/12/08 04:15:22;;;;;;;20.47;11.30;;;5.20;99.90;;;;;;5091519;28;20184;-63
2022/12/08 04:17:47;;;;;;;16.70;12.30;;;5.10;99.90;;;;;;5059862;28;20289;-64
2022/12/08 04:20:13;;;;;;;26.43;12.30;;;5.10;99.90;;;;;;5090467;28;20613;-64
2022/12/08 04:22:39;;;;;;;23.60;13.20;;;4.90;99.90;;;;;;5091307;28;20196;-63
2022/12/08 04:25:05;;;;;;;24.37;12.33;;;4.80;99.90;;;;;;5086856;28;20189;-64
2022/12/08 04:27:30;;;;;;;19.97;12.17;;;4.90;99.90;;;;;;5083101;28;20263;-64
2022/12/08 04:29:56;;;;;;;24.87;13.00;;;5.00;99.90;;;;;;5087838;28;20239;-63
2022/12/08 04:32:22;;;;;;;21.57;12.97;;;4.90;99.90;;;;;;5076899;28;20666;-64
2022/12/08 04:34:47;;;;;;;15.97;10.63;;;5.00;99.90;;;;;;5089895;28;20799;-64
2022/12/08 04:37:13;;;;;;;16.33;11.77;;;5.00;99.90;;;;;;5082767;28;20559;-63
2022/12/08 04:39:38;;;;;;;17.87;9.60;;;4.90;99.90;;;;;;5088980;28;20204;-64
2022/12/08 04:42:04;;;;;;;14.67;9.43;;;5.00;99.90;;;;;;5089918;28;20279;-64
2022/12/08 04:44:30;;;;;;;13.00;8.13;;;4.90;99.90;;;;;;5069140;28;20651;-63
2022/12/08 04:46:55;;;;;;;24.67;10.60;;;4.90;99.90;;;;;;5086505;28;20219;-64
2022/12/08 04:49:21;;;;;;;18.00;11.37;;;4.90;99.90;;;;;;5062931;28;20612;-63
2022/12/08 04:51:47;;;;;;;18.03;11.70;;;5.00;99.90;;;;;;5087815;28;20783;-64
2022/12/08 04:54:13;;;;;;;22.17;13.57;;;4.90;99.90;;;;;;5090108;28;20189;-63
2022/12/08 04:56:38;;;;;;;24.87;14.40;;;4.80;99.90;;;;;;5085676;28;20659;-64
2022/12/08 04:59:04;;;;;;;26.57;14.23;;;4.80;99.90;;;;;;5090936;28;20639;-64
2022/12/08 05:01:30;;;;;;;24.57;13.00;;;4.80;99.90;;;;;;5090638;28;20609;-63
2022/12/08 05:03:55;;;;;;;24.03;12.70;;;4.70;99.90;;;;;;5090847;28;20266;-64
2022/12/08 05:06:21;;;;;;;19.83;13.30;;;4.60;99.90;;;;;;5089385;28;20225;-64
2022/12/08 05:08:47;;;;;;;25.03;13.60;;;4.60;99.90;;;;;;5088839;28;20193;-64
2022/12/08 05:11:13;;;;;;;28.77;14.97;;;4.60;99.90;;;;;;5090244;28;20679;-63
2022/12/08 05:13:39;;;;;;;27.13;14.30;;;4.60;99.90;;;;;;5090880;28;20192;-63
2022/12/08 05:16:07;;;;;;;21.90;12.30;;;4.60;99.90;;;;;;5071994;28;20228;-64
2022/12/08 05:18:34;;;;;;;24.07;13.73;;;4.70;99.90;;;;;;5086493;28;20192;-64
2022/12/08 05:20:59;;;;;;;24.93;15.33;;;4.70;99.90;;;;;;5086122;28;20231;-62
2022/12/08 05:23:26;;;;;;;24.60;15.23;;;4.70;99.90;;;;;;5088489;28;20212;-63
2022/12/08 05:25:51;;;;;;;20.17;13.33;;;4.70;99.90;;;;;;5093384;28;20191;-63
2022/12/08 05:28:17;;;;;;;19.80;13.00;;;4.70;99.90;;;;;;5086986;28;20193;-63
2022/12/08 05:30:43;;;;;;;31.10;13.80;;;4.60;99.90;;;;;;5094548;28;20208;-63
2022/12/08 05:33:08;;;;;;;24.47;13.13;;;4.60;99.90;;;;;;5094742;28;20184;-63
2022/12/08 05:35:34;;;;;;;21.80;12.63;;;4.60;99.90;;;;;;5077497;28;20255;-63
2022/12/08 05:37:59;;;;;;;23.30;12.83;;;4.60;99.90;;;;;;5091580;28;20188;-63
2022/12/08 05:40:25;;;;;;;23.53;12.13;;;4.70;99.90;;;;;;5094701;28;20250;-64
2022/12/08 05:42:51;;;;;;;21.60;10.70;;;4.70;99.90;;;;;;5092775;28;20664;-64
2022/12/08 05:45:17;;;;;;;18.23;11.20;;;4.70;99.90;;;;;;5092133;28;20234;-64
2022/12/08 05:47:43;;;;;;;17.90;10.50;;;4.60;99.90;;;;;;5086606;28;20184;-61
2022/12/08 05:50:09;;;;;;;15.57;11.30;;;4.70;99.90;;;;;;5093787;28;20223;-61
2022/12/08 05:52:34;;;;;;;20.43;11.17;;;4.70;99.90;;;;;;5092185;28;20184;-64
2022/12/08 05:55:00;;;;;;;21.97;12.50;;;4.60;99.90;;;;;;5090992;28;20241;-61
2022/12/08 05:57:26;;;;;;;18.47;9.50;;;4.60;99.90;;;;;;5091806;28;20189;-61
2022/12/08 05:59:51;;;;;;;17.90;11.33;;;4.60;99.90;;;;;;5094159;28;20189;-61
2022/12/08 06:02:17;;;;;;;20.43;10.83;;;4.70;99.90;;;;;;5072883;28;20189;-61
2022/12/08 06:04:43;;;;;;;22.13;11.33;;;4.60;99.90;;;;;;5086606;28;20196;-61
2022/12/08 06:07:09;;;;;;;16.63;10.63;;;4.70;99.90;;;;;;5086801;28;20207;-61
2022/12/08 06:09:34;;;;;;;15.40;10.70;;;4.70;99.90;;;;;;5083479;28;20228;-61
2022/12/08 06:12:01;;;;;;;17.80;11.80;;;4.70;99.90;;;;;;5089485;28;20197;-62
2022/12/08 06:14:27;;;;;;;12.53;8.80;;;4.70;99.90;;;;;;5088882;28;20698;-61
2022/12/08 06:16:52;;;;;;;22.00;11.13;;;4.70;99.90;;;;;;5085816;28;20192;-62
2022/12/08 06:19:18;;;;;;;13.33;10.63;;;4.60;99.90;;;;;;5088995;28;20192;-61
2022/12/08 06:21:44;;;;;;;18.13;9.07;;;4.60;99.90;;;;;;5093407;28;20208;-62
2022/12/08 06:24:10;;;;;;;15.40;10.60;;;4.50;99.90;;;;;;5094048;28;20232;-61
2022/12/08 06:26:36;;;;;;;19.93;10.93;;;4.50;99.90;;;;;;5086774;28;20180;-62
2022/12/08 06:29:03;;;;;;;13.43;10.27;;;4.50;99.90;;;;;;5087208;28;20201;-62
2022/12/08 06:31:29;;;;;;;16.03;9.27;;;4.60;99.90;;;;;;5096201;28;20220;-62
2022/12/08 06:33:55;;;;;;;12.43;9.60;;;4.40;99.90;;;;;;5094005;28;20191;-63
2022/12/08 06:36:24;;;;;;;19.67;9.47;;;4.60;99.90;;;;;;5092425;28;20189;-63
2022/12/08 06:38:50;;;;;;;12.93;8.70;;;4.50;99.90;;;;;;5093525;28;20189;-63
2022/12/08 06:41:16;;;;;;;14.67;8.37;;;4.50;99.90;;;;;;5075455;28;20675;-63
2022/12/08 06:43:42;;;;;;;23.27;10.00;;;4.50;99.90;;;;;;5088712;28;20541;-63
2022/12/08 06:46:11;;;;;;;12.77;8.07;;;4.60;99.90;;;;;;5091749;28;20184;-62
2022/12/08 06:48:37;;;;;;;16.63;9.33;;;4.70;99.90;;;;;;5093094;28;20639;-63
2022/12/08 06:51:06;;;;;;;14.77;8.90;;;4.70;99.90;;;;;;5093219;28;20220;-62
2022/12/08 06:53:32;;;;;;;16.70;10.03;;;4.60;99.90;;;;;;5092747;28;20189;-62
2022/12/08 06:55:58;;;;;;;19.07;10.50;;;4.50;99.90;;;;;;5091775;28;20196;-63
2022/12/08 06:58:23;;;;;;;17.83;9.17;;;4.50;99.90;;;;;;5091653;28;20189;-63
2022/12/08 07:00:49;;;;;;;18.03;9.50;;;4.60;99.90;;;;;;5093004;28;20193;-63
2022/12/08 07:03:15;;;;;;;12.77;9.00;;;4.60;99.90;;;;;;5084310;28;20188;-63
2022/12/08 07:05:40;;;;;;;14.27;8.73;;;4.60;99.90;;;;;;5091156;28;20184;-63
2022/12/08 07:08:07;;;;;;;17.97;10.50;;;4.60;99.90;;;;;;5092513;28;20709;-63
2022/12/08 07:10:33;;;;;;;14.83;9.53;;;4.60;99.90;;;;;;5085358;28;20204;-63
2022/12/08 07:12:59;;;;;;;14.60;9.13;;;4.60;99.90;;;;;;5088385;28;20280;-63
2022/12/08 07:15:25;;;;;;;15.67;8.47;;;4.60;99.90;;;;;;5088678;28;20193;-63
2022/12/08 07:17:50;;;;;;;16.77;9.97;;;4.70;99.90;;;;;;5081472;28;20202;-64
2022/12/08 07:20:16;;;;;;;18.03;10.13;;;4.80;99.90;;;;;;5089915;28;20207;-63
2022/12/08 07:22:48;;;;;;;12.43;9.20;;;4.80;99.90;;;;;;5085697;28;20679;-63
2022/12/08 07:25:15;;;;;;;17.97;9.40;;;4.70;99.90;;;;;;5088097;28;20181;-63
2022/12/08 07:27:40;;;;;;;17.73;9.40;;;4.80;99.90;;;;;;5098674;28;20184;-63
2022/12/08 07:30:07;;;;;;;18.77;9.80;;;4.70;99.90;;;;;;5085389;28;20224;-63
2022/12/08 07:32:32;;;;;;;14.60;8.23;;;4.80;99.90;;;;;;5080732;28;20185;-63
2022/12/08 07:34:58;;;;;;;13.93;8.50;;;4.60;99.90;;;;;;5090358;28;20711;-63
2022/12/08 07:37:24;;;;;;;19.80;8.77;;;4.60;99.90;;;;;;5084067;28;20591;-63
2022/12/08 07:39:49;;;;;;;15.33;8.07;;;4.70;99.90;;;;;;5088403;28;20199;-63
2022/12/08 07:42:15;;;;;;;15.83;9.03;;;4.60;99.90;;;;;;5086127;28;20210;-64
2022/12/08 07:44:41;;;;;;;13.97;8.70;;;4.50;99.90;;;;;;5080570;28;20554;-63
2022/12/08 07:47:06;;;;;;;18.37;10.03;;;4.60;99.90;;;;;;5084301;28;20562;-63
2022/12/08 07:49:32;;;;;;;14.00;9.13;;;4.70;99.90;;;;;;5090027;28;20269;-63
2022/12/08 07:51:57;;;;;;;16.30;9.13;;;4.80;99.90;;;;;;5079279;28;20196;-63
2022/12/08 07:54:23;;;;;;;15.50;9.20;;;4.70;99.90;;;;;;5102956;28;20672;-63
2022/12/08 07:56:49;;;;;;;14.77;9.20;;;4.70;99.90;;;;;;5080426;28;20188;-63
2022/12/08 07:59:14;;;;;;;18.20;8.93;;;4.80;99.90;;;;;;5088902;28;20258;-63
2022/12/08 08:01:40;;;;;;;16.27;8.50;;;4.80;99.90;;;;;;5070582;28;20576;-63
2022/12/08 08:04:07;;;;;;;15.50;9.93;;;4.80;99.90;;;;;;5081438;28;20204;-62
2022/12/08 08:06:33;;;;;;;15.13;9.77;;;4.70;99.90;;;;;;5086065;28;20189;-62
2022/12/08 08:08:59;;;;;;;16.67;8.80;;;4.80;99.90;;;;;;5085461;28;20223;-62
2022/12/08 08:11:25;;;;;;;14.37;9.10;;;4.90;99.90;;;;;;5089235;28;20240;-62
2022/12/08 08:13:51;;;;;;;15.70;9.03;;;5.00;99.90;;;;;;5083272;28;20196;-62
2022/12/08 08:16:17;;;;;;;25.87;10.40;;;5.00;99.90;;;;;;5087291;28;20187;-62
2022/12/08 08:18:48;;;;;;;13.30;9.27;;;4.80;99.90;;;;;;5080524;28;20189;-62
2022/12/08 08:21:15;;;;;;;14.07;10.13;;;4.70;99.90;;;;;;5088042;28;20200;-62
2022/12/08 08:23:40;;;;;;;13.53;10.07;;;4.60;99.90;;;;;;5091506;28;20184;-63
2022/12/08 08:26:06;;;;;;;17.10;10.80;;;4.70;99.90;;;;;;5091506;28;20241;-63
2022/12/08 08:28:32;;;;;;;16.77;11.17;;;4.80;99.90;;;;;;5079799;28;20603;-64
2022/12/08 08:30:59;;;;;;;13.60;10.10;;;4.70;99.90;;;;;;5084606;28;20240;-62
2022/12/08 08:33:26;;;;;;;22.17;10.83;;;4.70;99.90;;;;;;5077896;28;20184;-62
2022/12/08 08:35:52;;;;;;;19.57;11.53;;;4.90;99.90;;;;;;5090845;28;20188;-62
2022/12/08 08:38:18;;;;;;;20.00;10.70;;;5.00;99.90;;;;;;5087607;28;20241;-62
2022/12/08 08:40:44;;;;;;;16.50;10.30;;;5.00;99.90;;;;;;5074280;28;20193;-62
2022/12/08 08:43:27;;;;;;;14.10;10.83;;;5.00;99.90;;;;;;5082840;28;20563;-62
2022/12/08 08:45:57;;;;;;;16.60;10.53;;;4.90;99.90;;;;;;5089315;28;20196;-62
2022/12/08 08:48:23;;;;;;;19.13;9.93;;;4.90;99.90;;;;;;5090900;28;20188;-62
2022/12/08 08:50:48;;;;;;;26.13;12.33;;;5.10;99.90;;;;;;5077679;28;20212;-63
2022/12/08 08:53:14;;;;;;;21.40;12.40;;;5.10;99.90;;;;;;5090390;28;20635;-63
2022/12/08 08:55:39;;;;;;;16.47;11.27;;;5.10;99.90;;;;;;5082141;28;20184;-63
2022/12/08 08:58:05;;;;;;;20.37;12.03;;;5.00;99.90;;;;;;5078856;28;20193;-62
2022/12/08 09:00:31;;;;;;;16.23;10.77;;;5.10;99.90;;;;;;5088043;28;20184;-62
2022/12/08 09:02:56;;;;;;;20.87;11.43;;;5.10;99.90;;;;;;5077860;28;20203;-62
2022/12/08 09:05:22;;;;;;;21.43;12.00;;;5.00;99.90;;;;;;5090770;28;20195;-62
2022/12/08 09:07:47;;;;;;;19.53;11.27;;;5.00;99.90;;;;;;5088443;28;20181;-63
2022/12/08 09:10:13;;;;;;;15.13;10.40;;;5.00;99.90;;;;;;5085955;28;20871;-63
2022/12/08 09:12:39;;;;;;;21.20;11.10;;;5.20;99.90;;;;;;5079506;28;20189;-63
2022/12/08 09:15:05;;;;;;;21.47;11.80;;;5.10;99.90;;;;;;5079897;28;20548;-63
2022/12/08 09:17:31;;;;;;;20.23;13.03;;;5.00;99.90;;;;;;5090726;28;20249;-62
2022/12/08 09:19:56;;;;;;;27.13;12.80;;;5.20;99.90;;;;;;5089465;28;20645;-63
2022/12/08 09:22:22;;;;;;;22.07;12.77;;;5.20;99.90;;;;;;5087051;28;20937;-63
2022/12/08 09:24:48;;;;;;;21.47;11.50;;;5.30;99.90;;;;;;5082824;28;20189;-63
2022/12/08 09:27:14;;;;;;;27.20;13.90;;;5.30;99.90;;;;;;5081813;28;20211;-63
2022/12/08 09:29:39;;;;;;;22.50;13.70;;;5.50;99.90;;;;;;5090419;28;20216;-63
2022/12/08 09:32:05;;;;;;;21.47;13.50;;;5.60;99.90;;;;;;5089473;28;20200;-63
2022/12/08 09:34:31;;;;;;;24.63;12.20;;;5.50;99.90;;;;;;5088614;28;20699;-63
2022/12/08 09:36:56;;;;;;;19.43;11.73;;;5.40;99.90;;;;;;5089656;28;20605;-63
2022/12/08 09:39:23;;;;;;;30.13;12.83;;;5.40;99.90;;;;;;5083994;28;20189;-63
2022/12/08 09:41:53;;;;;;;24.10;13.57;;;5.50;99.90;;;;;;5090321;28;20229;-63
2022/12/08 09:44:37;;;;;;;25.63;13.40;;;5.50;99.90;;;;;;5090609;28;20188;-63
2022/12/08 09:47:26;;;;;;;17.73;11.73;;;5.50;99.90;;;;;;5090169;28;20188;-63
2022/12/08 09:50:30;;;;;;;26.43;13.73;;;5.60;99.90;;;;;;5082769;28;20217;-63
2022/12/08 09:53:22;;;;;;;23.93;12.57;;;5.70;99.90;;;;;;5083287;28;20201;-63
2022/12/08 09:55:54;;;;;;;24.53;12.53;;;5.60;99.90;;;;;;5082046;28;20169;-63
2022/12/08 09:58:37;;;;;;;25.87;12.13;;;5.70;99.90;;;;;;5090475;28;20204;-63
2022/12/08 10:01:03;;;;;;;19.43;12.70;;;5.80;99.90;;;;;;5088809;28;20192;-63
2022/12/08 10:03:30;;;;;;;24.60;13.67;;;5.60;99.90;;;;;;5079385;28;20667;-63
2022/12/08 10:06:17;;;;;;;24.80;12.93;;;5.60;99.90;;;;;;5084574;28;20275;-63
2022/12/08 10:09:09;;;;;;;22.67;12.27;;;5.50;99.90;;;;;;5084681;28;20181;-63
2022/12/08 10:12:07;;;;;;;20.60;11.80;;;5.60;99.90;;;;;;5074232;28;20240;-63
2022/12/08 10:14:56;;;;;;;23.30;11.43;;;5.40;99.90;;;;;;5091922;28;20177;-63
2022/12/08 10:17:30;;;;;;;23.50;12.93;;;5.50;99.90;;;;;;5093681;28;20237;-63
2022/12/08 10:20:18;;;;;;;23.20;12.50;;;5.50;99.90;;;;;;5078813;28;20213;-63
2022/12/08 10:22:48;;;;;;;21.40;11.60;;;5.60;99.90;;;;;;5093738;28;20226;-63
2022/12/08 10:25:20;;;;;;;19.80;11.93;;;5.60;99.90;;;;;;5082886;28;20184;-63
2022/12/08 10:27:52;;;;;;;21.13;11.03;;;5.40;99.90;;;;;;5084797;28;20326;-63
2022/12/08 10:30:19;;;;;;;15.97;10.80;;;5.40;99.90;;;;;;5076350;28;20212;-63
2022/12/08 10:32:50;;;;;;;16.30;11.53;;;5.50;99.90;;;;;;5085333;28;20181;-63
2022/12/08 10:35:18;;;;;;;18.70;11.30;;;5.60;99.90;;;;;;5081109;28;20180;-63
2022/12/08 10:37:57;;;;;;;19.57;11.37;;;5.70;99.90;;;;;;5092374;28;20188;-63
2022/12/08 10:40:29;;;;;;;16.30;10.37;;;5.70;99.90;;;;;;5076924;28;20185;-63
2022/12/08 10:42:58;;;;;;;18.27;11.90;;;5.70;99.90;;;;;;5086452;28;20575;-63
2022/12/08 10:45:37;;;;;;;22.43;12.53;;;5.60;99.90;;;;;;5091800;28;20208;-63
2022/12/08 10:48:21;;;;;;;18.13;9.60;;;5.50;99.90;;;;;;5085146;28;20181;-63
2022/12/08 10:50:54;;;;;;;16.23;12.07;;;5.40;99.90;;;;;;5081796;28;20212;-63
2022/12/08 10:53:25;;;;;;;17.80;10.17;;;5.50;99.90;;;;;;5091995;28;20185;-63
2022/12/08 10:56:01;;;;;;;19.97;10.03;;;5.50;99.90;;;;;;5093088;28;20211;-63
2022/12/08 10:58:32;;;;;;;20.23;10.40;;;5.60;99.90;;;;;;5093203;28;20184;-63
2022/12/08 11:01:10;;;;;;;15.20;10.50;;;5.60;99.90;;;;;;5093099;28;20241;-64
2022/12/08 11:03:52;;;;;;;16.20;9.83;;;5.50;99.90;;;;;;5093044;28;20184;-64
2022/12/08 11:06:22;;;;;;;14.50;9.17;;;5.60;99.90;;;;;;5085822;28;20183;-63
2022/12/08 11:08:57;;;;;;;19.37;10.07;;;5.80;99.90;;;;;;5093097;28;20272;-63
2022/12/08 11:11:43;;;;;;;18.90;9.80;;;5.70;99.90;;;;;;5082744;28;20238;-63
2022/12/08 11:14:21;;;;;;;12.47;7.90;;;5.90;99.90;;;;;;5087587;28;20192;-63
2022/12/08 11:16:49;;;;;;;13.53;8.27;;;6.20;99.90;;;;;;5090455;28;20191;-63
2022/12/08 11:19:17;;;;;;;14.70;9.97;;;6.50;99.90;;;;;;5079360;28;20224;-63
2022/12/08 11:21:43;;;;;;;16.80;8.43;;;6.50;99.90;;;;;;5091699;28;20204;-64
2022/12/08 11:24:26;;;;;;;12.37;7.90;;;6.50;99.90;;;;;;5092638;28;20181;-62
2022/12/08 11:27:03;;;;;;;10.93;7.67;;;6.50;99.90;;;;;;5079340;28;20211;-63
2022/12/08 11:29:34;;;;;;;18.60;8.43;;;6.60;99.90;;;;;;5092402;28;20195;-63
2022/12/08 11:32:11;;;;;;;16.67;9.07;;;6.60;99.90;;;;;;5092592;28;20176;-64
2022/12/08 11:34:45;;;;;;;12.80;7.97;;;6.60;99.90;;;;;;5085111;28;20176;-63
2022/12/08 11:37:22;;;;;;;12.50;7.00;;;6.70;99.90;;;;;;5092165;28;20184;-63
2022/12/08 11:39:52;;;;;;;13.53;8.27;;;6.60;99.90;;;;;;5092746;28;20192;-63
2022/12/08 11:42:23;;;;;;;12.53;8.30;;;6.50;99.90;;;;;;5090273;28;20180;-63
2022/12/08 11:44:56;;;;;;;13.33;7.37;;;6.30;99.90;;;;;;5080228;28;20177;-63
2022/12/08 11:47:33;;;;;;;18.13;10.10;;;6.40;99.90;;;;;;5085966;28;20180;-63
2022/12/08 11:50:14;;;;;;;12.17;9.10;;;6.50;99.90;;;;;;5087748;28;20211;-63
2022/12/08 11:52:45;;;;;;;15.10;8.97;;;6.70;99.90;;;;;;5087118;28;20605;-63
2022/12/08 11:55:29;;;;;;;12.93;8.83;;;6.90;99.90;;;;;;5087280;28;20554;-63
2022/12/08 11:57:59;;;;;;;13.67;8.50;;;7.00;99.90;;;;;;5087206;28;20184;-63
2022/12/08 12:00:25;;;;;;;11.27;7.93;;;7.20;99.90;;;;;;5091920;28;20183;-63
2022/12/08 12:03:01;;;;;;;13.13;7.97;;;7.20;99.90;;;;;;5091473;28;20247;-63
2022/12/08 12:05:58;;;;;;;11.77;8.10;;;7.40;99.90;;;;;;5081860;28;20180;-63
2022/12/08 12:08:46;;;;;;;13.10;8.50;;;7.60;99.90;;;;;;5087792;28;20779;-64
2022/12/08 12:14:38;;;;;;;15.10;8.23;;;7.60;99.90;;;;;;5086739;28;20733;-64
2022/12/08 12:17:30;;;;;;;15.60;8.97;;;7.50;99.90;;;;;;5076106;28;20183;-64
2022/12/08 12:20:01;;;;;;;17.10;8.13;;;7.40;99.90;;;;;;5075870;28;20271;-64
2022/12/08 12:22:33;;;;;;;16.27;8.33;;;7.20;99.90;;;;;;5087839;28;20200;-63
2022/12/08 12:25:00;;;;;;;17.00;8.60;;;7.20;99.90;;;;;;5083796;28;20192;-64
2022/12/08 12:27:37;;;;;;;17.50;9.50;;;7.20;99.90;;;;;;5091396;28;20271;-64
2022/12/08 12:30:07;;;;;;;13.40;7.73;;;7.10;99.90;;;;;;5091259;28;20298;-64
2022/12/08 12:32:50;;;;;;;12.33;7.67;;;7.10;99.90;;;;;;5091467;28;20180;-64
2022/12/08 12:35:40;;;;;;;15.60;7.93;;;7.00;99.90;;;;;;5088127;28;20184;-64
2022/12/08 12:41:04;;;;;;;11.07;8.37;;;7.10;99.90;;;;;;5083667;28;20238;-64
2022/12/08 12:43:33;;;;;;;14.47;8.57;;;7.00;99.90;;;;;;5086442;28;20597;-64
2022/12/08 12:46:39;;;;;;;17.37;9.60;;;7.00;99.90;;;;;;5078944;28;20177;-64
2022/12/08 12:49:42;;;;;;;12.57;8.20;;;7.00;99.90;;;;;;5089718;28;20242;-64
2022/12/08 12:52:14;;;;;;;13.13;7.70;;;6.80;99.90;;;;;;5086954;28;20184;-64
2022/12/08 12:55:09;;;;;;;13.70;7.50;;;6.80;99.90;;;;;;5090935;28;20184;-64
2022/12/08 12:57:48;;;;;;;10.23;6.07;;;6.70;99.90;;;;;;5070735;28;20704;-64
2022/12/08 13:00:20;;;;;;;11.70;7.53;;;6.70;99.90;;;;;;5083738;28;20283;-64
2022/12/08 13:02:47;;;;;;;18.37;8.23;;;6.60;99.90;;;;;;5086429;28;20199;-64
2022/12/08 13:05:25;;;;;;;14.80;8.70;;;6.70;99.90;;;;;;5091214;28;20575;-64